Terminal Aerodrome Forecast
Issued by NWS

Home | Current Version | Previous Version | Text Only | Print | Product List | Glossary On
Versions: 1 2 3 4 5 6 7 8 9 10 11 12 13 14 15 16 17 18
000
FTUS45 KFGZ 272114 AAC
TAFGCN
TAF AMD
KGCN 272114Z 2721/2818 20014G24KT 3SM -SHSN SCT006 OVC015
      TEMPO 2721/2722 1SM -SHSN BKN005
     FM272200 22022G34KT 2SM -SHSN SCT012 OVC020
      TEMPO 2722/2802 1/2SM SN OVC005
     FM280200 22012KT 1/2SM SN VV005
      TEMPO 2808/2812 1/4SM +SN FZFG VV002=

USA.gov is the U.S. government's official web portal to all federal, state and local government web resources and services.